sensor_id;sensor_type;location;lat;lon;timestamp;P1;durP1;ratioP1;P2;durP2;ratioP2
11039;SDS011;5573;49.592;8.662;2023-02-01T00:01:47;127.33;;;120.37;;
11039;SDS011;5573;49.592;8.662;2023-02-01T00:04:14;140.53;;;132.93;;
11039;SDS011;5573;49.592;8.662;2023-02-01T00:06:42;136.10;;;128.57;;
11039;SDS011;5573;49.592;8.662;2023-02-01T00:09:10;134.80;;;127.40;;
11039;SDS011;5573;49.592;8.662;2023-02-01T00:11:38;131.43;;;124.10;;
11039;SDS011;5573;49.592;8.662;2023-02-01T00:14:07;139.63;;;131.87;;
11039;SDS011;5573;49.592;8.662;2023-02-01T00:16:35;149.87;;;141.73;;
11039;SDS011;5573;49.592;8.662;2023-02-01T00:19:04;140.37;;;132.83;;
11039;SDS011;5573;49.592;8.662;2023-02-01T00:21:34;131.73;;;124.53;;
11039;SDS011;5573;49.592;8.662;2023-02-01T00:24:01;135.93;;;128.53;;
11039;SDS011;5573;49.592;8.662;2023-02-01T00:26:30;133.20;;;125.93;;
11039;SDS011;5573;49.592;8.662;2023-02-01T00:29:00;136.33;;;128.73;;
11039;SDS011;5573;49.592;8.662;2023-02-01T00:31:29;143.30;;;135.20;;
11039;SDS011;5573;49.592;8.662;2023-02-01T00:33:57;129.67;;;122.63;;
11039;SDS011;5573;49.592;8.662;2023-02-01T00:36:25;135.43;;;128.03;;
11039;SDS011;5573;49.592;8.662;2023-02-01T00:38:54;140.57;;;132.77;;
11039;SDS011;5573;49.592;8.662;2023-02-01T00:41:22;140.87;;;133.03;;
11039;SDS011;5573;49.592;8.662;2023-02-01T00:43:50;132.03;;;124.87;;
11039;SDS011;5573;49.592;8.662;2023-02-01T00:46:18;127.30;;;120.27;;
11039;SDS011;5573;49.592;8.662;2023-02-01T00:48:49;142.93;;;135.07;;
11039;SDS011;5573;49.592;8.662;2023-02-01T00:51:18;144.17;;;136.13;;
11039;SDS011;5573;49.592;8.662;2023-02-01T00:53:47;143.27;;;135.40;;
11039;SDS011;5573;49.592;8.662;2023-02-01T00:56:15;140.23;;;132.53;;
11039;SDS011;5573;49.592;8.662;2023-02-01T00:58:43;144.60;;;136.67;;
11039;SDS011;5573;49.592;8.662;2023-02-01T01:01:14;139.10;;;131.23;;
11039;SDS011;5573;49.592;8.662;2023-02-01T01:03:45;143.83;;;135.70;;
11039;SDS011;5573;49.592;8.662;2023-02-01T01:06:16;139.20;;;131.50;;
11039;SDS011;5573;49.592;8.662;2023-02-01T01:08:46;129.27;;;122.17;;
11039;SDS011;5573;49.592;8.662;2023-02-01T01:11:15;126.53;;;119.57;;
11039;SDS011;5573;49.592;8.662;2023-02-01T01:13:45;137.27;;;129.63;;
11039;SDS011;5573;49.592;8.662;2023-02-01T01:16:14;138.93;;;131.27;;
11039;SDS011;5573;49.592;8.662;2023-02-01T01:18:42;138.73;;;131.07;;
11039;SDS011;5573;49.592;8.662;2023-02-01T01:21:11;145.73;;;137.63;;
11039;SDS011;5573;49.592;8.662;2023-02-01T01:23:41;143.43;;;135.40;;
11039;SDS011;5573;49.592;8.662;2023-02-01T01:26:09;144.17;;;136.30;;
11039;SDS011;5573;49.592;8.662;2023-02-01T01:28:39;135.63;;;128.13;;
11039;SDS011;5573;49.592;8.662;2023-02-01T01:31:08;133.13;;;125.77;;
11039;SDS011;5573;49.592;8.662;2023-02-01T01:33:36;143.93;;;136.10;;
11039;SDS011;5573;49.592;8.662;2023-02-01T01:36:05;140.43;;;132.90;;
11039;SDS011;5573;49.592;8.662;2023-02-01T01:38:34;138.17;;;130.63;;
11039;SDS011;5573;49.592;8.662;2023-02-01T01:41:04;149.93;;;141.57;;
11039;SDS011;5573;49.592;8.662;2023-02-01T01:43:48;148.37;;;140.20;;
11039;SDS011;5573;49.592;8.662;2023-02-01T01:46:19;148.67;;;140.53;;
11039;SDS011;5573;49.592;8.662;2023-02-01T01:48:49;141.13;;;133.40;;
11039;SDS011;5573;49.592;8.662;2023-02-01T01:51:21;139.53;;;131.93;;
11039;SDS011;5573;49.592;8.662;2023-02-01T01:53:55;145.73;;;137.70;;
11039;SDS011;5573;49.592;8.662;2023-02-01T01:56:30;146.20;;;138.07;;
11039;SDS011;5573;49.592;8.662;2023-02-01T01:59:01;135.77;;;128.13;;
11039;SDS011;5573;49.592;8.662;2023-02-01T02:01:29;145.83;;;137.60;;
11039;SDS011;5573;49.592;8.662;2023-02-01T02:03:57;153.07;;;144.60;;
11039;SDS011;5573;49.592;8.662;2023-02-01T02:06:28;140.87;;;133.03;;
11039;SDS011;5573;49.592;8.662;2023-02-01T02:09:04;141.60;;;133.70;;
11039;SDS011;5573;49.592;8.662;2023-02-01T02:11:33;137.70;;;130.13;;
11039;SDS011;5573;49.592;8.662;2023-02-01T02:14:01;147.80;;;139.87;;
11039;SDS011;5573;49.592;8.662;2023-02-01T02:22:49;134.53;;;127.03;;
11039;SDS011;5573;49.592;8.662;2023-02-01T02:25:44;129.00;;;121.87;;
11039;SDS011;5573;49.592;8.662;2023-02-01T02:28:39;133.17;;;125.93;;
11039;SDS011;5573;49.592;8.662;2023-02-01T02:31:40;122.03;;;115.43;;
11039;SDS011;5573;49.592;8.662;2023-02-01T02:34:21;129.90;;;122.97;;
11039;SDS011;5573;49.592;8.662;2023-02-01T02:36:59;127.13;;;120.13;;
11039;SDS011;5573;49.592;8.662;2023-02-01T02:39:38;129.23;;;122.13;;
11039;SDS011;5573;49.592;8.662;2023-02-01T02:42:19;132.37;;;125.27;;
11039;SDS011;5573;49.592;8.662;2023-02-01T02:45:17;129.13;;;122.00;;
11039;SDS011;5573;49.592;8.662;2023-02-01T02:48:08;119.97;;;113.43;;
11039;SDS011;5573;49.592;8.662;2023-02-01T02:50:46;133.13;;;125.33;;
11039;SDS011;5573;49.592;8.662;2023-02-01T02:53:41;127.50;;;120.63;;
11039;SDS011;5573;49.592;8.662;2023-02-01T02:56:33;117.93;;;111.50;;
11039;SDS011;5573;49.592;8.662;2023-02-01T02:59:21;128.33;;;121.27;;
11039;SDS011;5573;49.592;8.662;2023-02-01T03:02:10;121.07;;;114.57;;
11039;SDS011;5573;49.592;8.662;2023-02-01T03:04:57;128.23;;;121.17;;
11039;SDS011;5573;49.592;8.662;2023-02-01T03:10:32;114.97;;;108.73;;
11039;SDS011;5573;49.592;8.662;2023-02-01T03:13:06;121.73;;;115.20;;
11039;SDS011;5573;49.592;8.662;2023-02-01T03:15:37;130.13;;;123.13;;
11039;SDS011;5573;49.592;8.662;2023-02-01T03:18:19;127.87;;;120.97;;
11039;SDS011;5573;49.592;8.662;2023-02-01T03:20:52;123.33;;;116.70;;
11039;SDS011;5573;49.592;8.662;2023-02-01T03:23:25;126.17;;;119.13;;
11039;SDS011;5573;49.592;8.662;2023-02-01T03:25:58;130.87;;;123.63;;
11039;SDS011;5573;49.592;8.662;2023-02-01T03:28:29;134.07;;;126.63;;
11039;SDS011;5573;49.592;8.662;2023-02-01T03:31:01;135.13;;;127.67;;
11039;SDS011;5573;49.592;8.662;2023-02-01T03:33:30;130.63;;;123.60;;
11039;SDS011;5573;49.592;8.662;2023-02-01T03:36:02;121.97;;;115.40;;
11039;SDS011;5573;49.592;8.662;2023-02-01T03:38:38;122.33;;;115.83;;
11039;SDS011;5573;49.592;8.662;2023-02-01T03:41:14;122.73;;;116.17;;
11039;SDS011;5573;49.592;8.662;2023-02-01T03:43:50;127.47;;;120.53;;
11039;SDS011;5573;49.592;8.662;2023-02-01T03:46:23;125.87;;;118.93;;
11039;SDS011;5573;49.592;8.662;2023-02-01T03:49:00;117.23;;;110.83;;
11039;SDS011;5573;49.592;8.662;2023-02-01T03:51:36;127.33;;;120.47;;
11039;SDS011;5573;49.592;8.662;2023-02-01T03:54:10;131.27;;;124.10;;
11039;SDS011;5573;49.592;8.662;2023-02-01T03:56:42;114.07;;;107.93;;
11039;SDS011;5573;49.592;8.662;2023-02-01T03:59:13;119.87;;;113.43;;
11039;SDS011;5573;49.592;8.662;2023-02-01T04:01:41;124.63;;;117.93;;
11039;SDS011;5573;49.592;8.662;2023-02-01T04:04:09;125.47;;;118.63;;
11039;SDS011;5573;49.592;8.662;2023-02-01T04:06:38;133.97;;;126.73;;
11039;SDS011;5573;49.592;8.662;2023-02-01T04:09:06;138.00;;;130.50;;
11039;SDS011;5573;49.592;8.662;2023-02-01T04:11:35;131.60;;;124.37;;
11039;SDS011;5573;49.592;8.662;2023-02-01T04:14:02;135.10;;;127.80;;
11039;SDS011;5573;49.592;8.662;2023-02-01T04:16:30;137.90;;;130.50;;
11039;SDS011;5573;49.592;8.662;2023-02-01T04:18:58;152.10;;;143.70;;
11039;SDS011;5573;49.592;8.662;2023-02-01T04:21:26;145.70;;;137.60;;
11039;SDS011;5573;49.592;8.662;2023-02-01T04:23:55;152.37;;;144.10;;
11039;SDS011;5573;49.592;8.662;2023-02-01T04:26:22;151.23;;;143.03;;
11039;SDS011;5573;49.592;8.662;2023-02-01T04:28:51;139.47;;;131.90;;
11039;SDS011;5573;49.592;8.662;2023-02-01T04:31:20;160.70;;;151.83;;
11039;SDS011;5573;49.592;8.662;2023-02-01T04:33:51;142.17;;;134.30;;
11039;SDS011;5573;49.592;8.662;2023-02-01T04:36:20;151.20;;;142.80;;
11039;SDS011;5573;49.592;8.662;2023-02-01T04:38:48;173.73;;;164.10;;
11039;SDS011;5573;49.592;8.662;2023-02-01T04:41:17;156.53;;;147.60;;
11039;SDS011;5573;49.592;8.662;2023-02-01T04:43:45;168.63;;;159.20;;
11039;SDS011;5573;49.592;8.662;2023-02-01T04:46:14;166.97;;;157.53;;
11039;SDS011;5573;49.592;8.662;2023-02-01T04:48:42;158.57;;;149.63;;
11039;SDS011;5573;49.592;8.662;2023-02-01T04:51:10;159.63;;;150.63;;
11039;SDS011;5573;49.592;8.662;2023-02-01T04:53:38;163.43;;;154.47;;
11039;SDS011;5573;49.592;8.662;2023-02-01T04:56:06;159.43;;;150.37;;
11039;SDS011;5573;49.592;8.662;2023-02-01T04:58:34;166.97;;;157.70;;
11039;SDS011;5573;49.592;8.662;2023-02-01T05:01:02;158.43;;;149.50;;
11039;SDS011;5573;49.592;8.662;2023-02-01T05:03:32;157.90;;;148.93;;
11039;SDS011;5573;49.592;8.662;2023-02-01T05:06:01;169.33;;;159.87;;
11039;SDS011;5573;49.592;8.662;2023-02-01T05:08:30;174.67;;;164.80;;
11039;SDS011;5573;49.592;8.662;2023-02-01T05:10:58;163.10;;;154.00;;
11039;SDS011;5573;49.592;8.662;2023-02-01T05:13:28;159.27;;;150.47;;
11039;SDS011;5573;49.592;8.662;2023-02-01T05:16:14;150.97;;;142.50;;
11039;SDS011;5573;49.592;8.662;2023-02-01T05:18:43;161.87;;;152.67;;
11039;SDS011;5573;49.592;8.662;2023-02-01T05:21:12;164.13;;;154.77;;
11039;SDS011;5573;49.592;8.662;2023-02-01T05:23:39;161.37;;;152.17;;
11039;SDS011;5573;49.592;8.662;2023-02-01T05:26:21;171.17;;;161.67;;
11039;SDS011;5573;49.592;8.662;2023-02-01T05:28:49;165.57;;;156.10;;
11039;SDS011;5573;49.592;8.662;2023-02-01T05:31:17;180.67;;;170.47;;
11039;SDS011;5573;49.592;8.662;2023-02-01T05:33:46;175.97;;;166.03;;
11039;SDS011;5573;49.592;8.662;2023-02-01T05:36:14;168.23;;;158.80;;
11039;SDS011;5573;49.592;8.662;2023-02-01T05:38:42;183.77;;;173.40;;
11039;SDS011;5573;49.592;8.662;2023-02-01T05:41:10;169.63;;;160.03;;
11039;SDS011;5573;49.592;8.662;2023-02-01T05:43:37;171.47;;;161.73;;
11039;SDS011;5573;49.592;8.662;2023-02-01T05:46:05;181.00;;;170.73;;
11039;SDS011;5573;49.592;8.662;2023-02-01T05:48:40;173.13;;;163.33;;
11039;SDS011;5573;49.592;8.662;2023-02-01T05:51:09;167.70;;;158.33;;
11039;SDS011;5573;49.592;8.662;2023-02-01T05:53:38;182.13;;;171.77;;
11039;SDS011;5573;49.592;8.662;2023-02-01T05:56:06;191.97;;;181.37;;
11039;SDS011;5573;49.592;8.662;2023-02-01T05:58:34;192.43;;;181.47;;
11039;SDS011;5573;49.592;8.662;2023-02-01T06:01:02;174.07;;;164.23;;
11039;SDS011;5573;49.592;8.662;2023-02-01T06:03:30;188.20;;;177.47;;
11039;SDS011;5573;49.592;8.662;2023-02-01T06:05:59;181.37;;;170.87;;
11039;SDS011;5573;49.592;8.662;2023-02-01T06:08:28;175.83;;;165.93;;
11039;SDS011;5573;49.592;8.662;2023-02-01T06:10:59;179.53;;;168.87;;
11039;SDS011;5573;49.592;8.662;2023-02-01T06:13:27;180.47;;;170.23;;
11039;SDS011;5573;49.592;8.662;2023-02-01T06:15:55;170.73;;;160.93;;
11039;SDS011;5573;49.592;8.662;2023-02-01T06:18:24;188.17;;;177.50;;
11039;SDS011;5573;49.592;8.662;2023-02-01T06:20:52;180.33;;;170.13;;
11039;SDS011;5573;49.592;8.662;2023-02-01T06:23:20;176.60;;;166.53;;
11039;SDS011;5573;49.592;8.662;2023-02-01T06:25:52;169.47;;;159.83;;
11039;SDS011;5573;49.592;8.662;2023-02-01T06:28:20;170.40;;;160.77;;
11039;SDS011;5573;49.592;8.662;2023-02-01T06:30:49;184.37;;;174.13;;
11039;SDS011;5573;49.592;8.662;2023-02-01T06:33:17;177.57;;;167.47;;
11039;SDS011;5573;49.592;8.662;2023-02-01T06:35:45;162.97;;;153.50;;
11039;SDS011;5573;49.592;8.662;2023-02-01T06:38:13;178.97;;;168.77;;
11039;SDS011;5573;49.592;8.662;2023-02-01T06:40:41;174.97;;;164.90;;
11039;SDS011;5573;49.592;8.662;2023-02-01T06:43:11;182.57;;;172.27;;
11039;SDS011;5573;49.592;8.662;2023-02-01T06:45:38;171.83;;;162.10;;
11039;SDS011;5573;49.592;8.662;2023-02-01T06:48:07;175.47;;;165.33;;
11039;SDS011;5573;49.592;8.662;2023-02-01T06:50:35;183.60;;;173.27;;
11039;SDS011;5573;49.592;8.662;2023-02-01T06:53:03;179.53;;;169.13;;
11039;SDS011;5573;49.592;8.662;2023-02-01T06:55:31;185.53;;;174.83;;
11039;SDS011;5573;49.592;8.662;2023-02-01T06:57:58;179.23;;;169.10;;
11039;SDS011;5573;49.592;8.662;2023-02-01T07:00:29;188.23;;;177.23;;
11039;SDS011;5573;49.592;8.662;2023-02-01T07:02:57;167.77;;;157.83;;
11039;SDS011;5573;49.592;8.662;2023-02-01T07:05:26;161.77;;;152.53;;
11039;SDS011;5573;49.592;8.662;2023-02-01T07:07:53;176.43;;;166.30;;
11039;SDS011;5573;49.592;8.662;2023-02-01T07:10:21;179.53;;;169.03;;
11039;SDS011;5573;49.592;8.662;2023-02-01T07:12:49;172.97;;;163.10;;
11039;SDS011;5573;49.592;8.662;2023-02-01T07:15:17;184.30;;;173.73;;
11039;SDS011;5573;49.592;8.662;2023-02-01T07:17:46;174.93;;;164.60;;
11039;SDS011;5573;49.592;8.662;2023-02-01T07:20:15;171.73;;;162.03;;
11039;SDS011;5573;49.592;8.662;2023-02-01T07:22:43;187.60;;;176.77;;
11039;SDS011;5573;49.592;8.662;2023-02-01T07:25:11;173.50;;;163.53;;
11039;SDS011;5573;49.592;8.662;2023-02-01T07:27:38;177.80;;;167.30;;
11039;SDS011;5573;49.592;8.662;2023-02-01T07:30:07;186.40;;;175.60;;
11039;SDS011;5573;49.592;8.662;2023-02-01T07:32:36;169.43;;;159.77;;
11039;SDS011;5573;49.592;8.662;2023-02-01T07:35:05;180.43;;;170.30;;
11039;SDS011;5573;49.592;8.662;2023-02-01T07:37:34;181.37;;;171.10;;
11039;SDS011;5573;49.592;8.662;2023-02-01T07:40:01;177.73;;;167.57;;
11039;SDS011;5573;49.592;8.662;2023-02-01T07:42:30;177.67;;;167.50;;
11039;SDS011;5573;49.592;8.662;2023-02-01T07:44:57;178.47;;;168.30;;
11039;SDS011;5573;49.592;8.662;2023-02-01T07:47:44;158.70;;;149.63;;
11039;SDS011;5573;49.592;8.662;2023-02-01T07:50:13;169.83;;;160.27;;
11039;SDS011;5573;49.592;8.662;2023-02-01T07:52:41;178.20;;;168.17;;
11039;SDS011;5573;49.592;8.662;2023-02-01T07:55:09;172.90;;;163.10;;
11039;SDS011;5573;49.592;8.662;2023-02-01T07:57:37;166.50;;;157.03;;
11039;SDS011;5573;49.592;8.662;2023-02-01T08:00:05;163.40;;;154.00;;
11039;SDS011;5573;49.592;8.662;2023-02-01T08:02:51;160.57;;;151.47;;
11039;SDS011;5573;49.592;8.662;2023-02-01T08:05:20;180.03;;;169.57;;
11039;SDS011;5573;49.592;8.662;2023-02-01T08:07:48;162.83;;;153.47;;
11039;SDS011;5573;49.592;8.662;2023-02-01T08:10:16;168.53;;;158.90;;
11039;SDS011;5573;49.592;8.662;2023-02-01T08:12:44;154.83;;;145.97;;
11039;SDS011;5573;49.592;8.662;2023-02-01T08:15:13;168.40;;;159.27;;
11039;SDS011;5573;49.592;8.662;2023-02-01T08:17:45;162.63;;;153.57;;
11039;SDS011;5573;49.592;8.662;2023-02-01T08:20:14;160.67;;;151.67;;
11039;SDS011;5573;49.592;8.662;2023-02-01T08:22:43;164.80;;;155.43;;
11039;SDS011;5573;49.592;8.662;2023-02-01T08:25:11;165.70;;;156.57;;
11039;SDS011;5573;49.592;8.662;2023-02-01T08:27:39;178.27;;;168.17;;
11039;SDS011;5573;49.592;8.662;2023-02-01T08:30:07;158.80;;;150.07;;
11039;SDS011;5573;49.592;8.662;2023-02-01T08:32:36;164.80;;;155.50;;
11039;SDS011;5573;49.592;8.662;2023-02-01T08:35:04;147.47;;;139.33;;
11039;SDS011;5573;49.592;8.662;2023-02-01T08:37:32;154.03;;;145.47;;
11039;SDS011;5573;49.592;8.662;2023-02-01T08:40:01;178.23;;;168.37;;
11039;SDS011;5573;49.592;8.662;2023-02-01T08:42:29;172.70;;;162.93;;
11039;SDS011;5573;49.592;8.662;2023-02-01T08:45:14;162.57;;;153.67;;
11039;SDS011;5573;49.592;8.662;2023-02-01T08:47:42;164.27;;;155.17;;
11039;SDS011;5573;49.592;8.662;2023-02-01T08:50:10;171.60;;;161.83;;
11039;SDS011;5573;49.592;8.662;2023-02-01T08:52:38;168.20;;;159.13;;
11039;SDS011;5573;49.592;8.662;2023-02-01T08:55:07;157.33;;;148.60;;
11039;SDS011;5573;49.592;8.662;2023-02-01T08:57:36;161.63;;;152.73;;
11039;SDS011;5573;49.592;8.662;2023-02-01T09:00:05;158.53;;;149.70;;
11039;SDS011;5573;49.592;8.662;2023-02-01T09:02:34;166.23;;;157.20;;
11039;SDS011;5573;49.592;8.662;2023-02-01T09:05:02;170.70;;;161.27;;
11039;SDS011;5573;49.592;8.662;2023-02-01T09:07:31;157.10;;;148.43;;
11039;SDS011;5573;49.592;8.662;2023-02-01T09:10:00;165.93;;;156.83;;
11039;SDS011;5573;49.592;8.662;2023-02-01T09:12:29;160.17;;;151.37;;
11039;SDS011;5573;49.592;8.662;2023-02-01T09:14:58;159.63;;;150.97;;
11039;SDS011;5573;49.592;8.662;2023-02-01T09:17:26;140.63;;;132.97;;
11039;SDS011;5573;49.592;8.662;2023-02-01T09:19:59;163.63;;;154.43;;
11039;SDS011;5573;49.592;8.662;2023-02-01T09:22:27;169.80;;;160.50;;
11039;SDS011;5573;49.592;8.662;2023-02-01T09:24:55;168.17;;;158.87;;
11039;SDS011;5573;49.592;8.662;2023-02-01T09:27:23;171.70;;;162.10;;
11039;SDS011;5573;49.592;8.662;2023-02-01T09:29:52;156.80;;;148.17;;
11039;SDS011;5573;49.592;8.662;2023-02-01T09:32:20;164.03;;;155.00;;
11039;SDS011;5573;49.592;8.662;2023-02-01T09:34:48;166.17;;;157.03;;
11039;SDS011;5573;49.592;8.662;2023-02-01T09:37:17;169.60;;;160.30;;
11039;SDS011;5573;49.592;8.662;2023-02-01T09:39:45;179.83;;;169.57;;
11039;SDS011;5573;49.592;8.662;2023-02-01T09:42:21;168.93;;;159.67;;
11039;SDS011;5573;49.592;8.662;2023-02-01T09:45:13;159.63;;;150.87;;
11039;SDS011;5573;49.592;8.662;2023-02-01T09:47:47;174.57;;;165.00;;
11039;SDS011;5573;49.592;8.662;2023-02-01T09:50:19;182.60;;;172.80;;
11039;SDS011;5573;49.592;8.662;2023-02-01T09:52:52;166.63;;;157.07;;
11039;SDS011;5573;49.592;8.662;2023-02-01T09:55:25;166.17;;;156.53;;
11039;SDS011;5573;49.592;8.662;2023-02-01T09:57:58;160.03;;;151.10;;
11039;SDS011;5573;49.592;8.662;2023-02-01T10:00:33;163.37;;;154.30;;
11039;SDS011;5573;49.592;8.662;2023-02-01T10:03:03;168.87;;;159.43;;
11039;SDS011;5573;49.592;8.662;2023-02-01T10:05:39;163.50;;;154.47;;
11039;SDS011;5573;49.592;8.662;2023-02-01T10:08:19;182.13;;;172.10;;
11039;SDS011;5573;49.592;8.662;2023-02-01T10:10:53;171.73;;;162.23;;
11039;SDS011;5573;49.592;8.662;2023-02-01T10:13:41;167.43;;;158.37;;
11039;SDS011;5573;49.592;8.662;2023-02-01T10:16:20;153.30;;;145.07;;
11039;SDS011;5573;49.592;8.662;2023-02-01T10:21:51;146.17;;;138.50;;
11039;SDS011;5573;49.592;8.662;2023-02-01T10:24:28;155.23;;;146.80;;
11039;SDS011;5573;49.592;8.662;2023-02-01T10:27:08;156.93;;;148.43;;
11039;SDS011;5573;49.592;8.662;2023-02-01T10:29:41;154.60;;;146.27;;
11039;SDS011;5573;49.592;8.662;2023-02-01T10:32:15;156.33;;;148.10;;
11039;SDS011;5573;49.592;8.662;2023-02-01T10:34:44;158.33;;;149.77;;
11039;SDS011;5573;49.592;8.662;2023-02-01T10:37:18;156.83;;;148.47;;
11039;SDS011;5573;49.592;8.662;2023-02-01T10:39:54;158.47;;;150.10;;
11039;SDS011;5573;49.592;8.662;2023-02-01T10:42:25;167.97;;;158.80;;
11039;SDS011;5573;49.592;8.662;2023-02-01T10:44:54;158.20;;;149.60;;
11039;SDS011;5573;49.592;8.662;2023-02-01T10:47:26;162.83;;;153.97;;
11039;SDS011;5573;49.592;8.662;2023-02-01T10:49:55;164.73;;;155.70;;
11039;SDS011;5573;49.592;8.662;2023-02-01T10:52:31;162.17;;;153.40;;
11039;SDS011;5573;49.592;8.662;2023-02-01T10:58:06;151.90;;;143.63;;
11039;SDS011;5573;49.592;8.662;2023-02-01T11:00:43;158.40;;;149.87;;
11039;SDS011;5573;49.592;8.662;2023-02-01T11:06:09;154.17;;;145.90;;
11039;SDS011;5573;49.592;8.662;2023-02-01T11:08:47;152.80;;;144.43;;
11039;SDS011;5573;49.592;8.662;2023-02-01T11:11:17;173.20;;;163.77;;
11039;SDS011;5573;49.592;8.662;2023-02-01T11:13:51;182.50;;;172.60;;
11039;SDS011;5573;49.592;8.662;2023-02-01T11:16:21;170.40;;;161.13;;
11039;SDS011;5573;49.592;8.662;2023-02-01T11:18:58;163.77;;;154.83;;
11039;SDS011;5573;49.592;8.662;2023-02-01T11:21:26;157.40;;;148.77;;
11039;SDS011;5573;49.592;8.662;2023-02-01T11:23:54;147.53;;;139.63;;
11039;SDS011;5573;49.592;8.662;2023-02-01T11:26:24;158.90;;;150.33;;
11039;SDS011;5573;49.592;8.662;2023-02-01T11:28:56;164.23;;;155.47;;
11039;SDS011;5573;49.592;8.662;2023-02-01T11:31:26;158.13;;;149.53;;
11039;SDS011;5573;49.592;8.662;2023-02-01T11:33:59;159.10;;;150.47;;
11039;SDS011;5573;49.592;8.662;2023-02-01T11:36:33;164.10;;;155.37;;
11039;SDS011;5573;49.592;8.662;2023-02-01T11:39:14;148.47;;;140.17;;
11039;SDS011;5573;49.592;8.662;2023-02-01T11:41:55;155.87;;;147.60;;
11039;SDS011;5573;49.592;8.662;2023-02-01T11:44:29;154.07;;;145.53;;
11039;SDS011;5573;49.592;8.662;2023-02-01T11:47:17;144.50;;;136.37;;
11039;SDS011;5573;49.592;8.662;2023-02-01T11:49:48;153.60;;;145.43;;
11039;SDS011;5573;49.592;8.662;2023-02-01T11:52:20;149.47;;;141.37;;
11039;SDS011;5573;49.592;8.662;2023-02-01T11:55:13;143.53;;;135.77;;
11039;SDS011;5573;49.592;8.662;2023-02-01T11:57:55;150.97;;;142.80;;
11039;SDS011;5573;49.592;8.662;2023-02-01T12:00:37;149.60;;;141.60;;
11039;SDS011;5573;49.592;8.662;2023-02-01T12:03:29;157.37;;;148.70;;
11039;SDS011;5573;49.592;8.662;2023-02-01T12:06:20;150.43;;;142.13;;
11039;SDS011;5573;49.592;8.662;2023-02-01T12:09:00;152.83;;;144.53;;
11039;SDS011;5573;49.592;8.662;2023-02-01T12:11:40;143.90;;;136.00;;
11039;SDS011;5573;49.592;8.662;2023-02-01T12:14:22;159.87;;;151.13;;
11039;SDS011;5573;49.592;8.662;2023-02-01T12:17:01;156.47;;;147.93;;
11039;SDS011;5573;49.592;8.662;2023-02-01T12:19:45;149.77;;;141.67;;
11039;SDS011;5573;49.592;8.662;2023-02-01T12:22:29;166.83;;;157.57;;
11039;SDS011;5573;49.592;8.662;2023-02-01T12:25:16;164.80;;;155.63;;
11039;SDS011;5573;49.592;8.662;2023-02-01T12:31:08;161.43;;;152.57;;
11039;SDS011;5573;49.592;8.662;2023-02-01T12:33:57;149.20;;;141.10;;
11039;SDS011;5573;49.592;8.662;2023-02-01T12:36:40;152.60;;;144.03;;
11039;SDS011;5573;49.592;8.662;2023-02-01T12:39:18;152.97;;;144.60;;
11039;SDS011;5573;49.592;8.662;2023-02-01T12:41:54;159.97;;;151.17;;
11039;SDS011;5573;49.592;8.662;2023-02-01T12:44:27;156.57;;;147.87;;
11039;SDS011;5573;49.592;8.662;2023-02-01T12:47:04;148.63;;;140.47;;
11039;SDS011;5573;49.592;8.662;2023-02-01T12:49:38;152.27;;;143.97;;
11039;SDS011;5573;49.592;8.662;2023-02-01T12:52:14;154.13;;;145.53;;
11039;SDS011;5573;49.592;8.662;2023-02-01T12:54:48;167.77;;;158.70;;
11039;SDS011;5573;49.592;8.662;2023-02-01T12:57:23;148.17;;;139.90;;
11039;SDS011;5573;49.592;8.662;2023-02-01T12:59:56;156.47;;;147.93;;
11039;SDS011;5573;49.592;8.662;2023-02-01T13:02:30;146.33;;;138.17;;
11039;SDS011;5573;49.592;8.662;2023-02-01T13:05:13;158.30;;;149.53;;
11039;SDS011;5573;49.592;8.662;2023-02-01T13:07:46;157.73;;;148.97;;
11039;SDS011;5573;49.592;8.662;2023-02-01T13:10:19;143.50;;;135.67;;
11039;SDS011;5573;49.592;8.662;2023-02-01T13:12:54;157.07;;;148.37;;
11039;SDS011;5573;49.592;8.662;2023-02-01T13:15:27;132.57;;;125.17;;
11039;SDS011;5573;49.592;8.662;2023-02-01T13:18:00;145.70;;;137.53;;
11039;SDS011;5573;49.592;8.662;2023-02-01T13:20:32;149.87;;;141.37;;
11039;SDS011;5573;49.592;8.662;2023-02-01T13:23:04;138.20;;;130.67;;
11039;SDS011;5573;49.592;8.662;2023-02-01T13:25:43;146.43;;;137.93;;
11039;SDS011;5573;49.592;8.662;2023-02-01T13:28:20;140.23;;;132.50;;
11039;SDS011;5573;49.592;8.662;2023-02-01T13:31:00;141.63;;;133.70;;
11039;SDS011;5573;49.592;8.662;2023-02-01T13:33:47;143.23;;;135.17;;
11039;SDS011;5573;49.592;8.662;2023-02-01T13:36:38;162.77;;;153.67;;
11039;SDS011;5573;49.592;8.662;2023-02-01T13:42:15;144.23;;;136.00;;
11039;SDS011;5573;49.592;8.662;2023-02-01T13:44:48;145.37;;;137.10;;
11039;SDS011;5573;49.592;8.662;2023-02-01T13:47:23;149.10;;;140.53;;
11039;SDS011;5573;49.592;8.662;2023-02-01T13:49:54;154.03;;;145.50;;
11039;SDS011;5573;49.592;8.662;2023-02-01T13:52:28;158.97;;;149.70;;
11039;SDS011;5573;49.592;8.662;2023-02-01T13:55:03;156.20;;;147.63;;
11039;SDS011;5573;49.592;8.662;2023-02-01T13:57:44;161.87;;;152.57;;
11039;SDS011;5573;49.592;8.662;2023-02-01T14:00:25;164.67;;;155.30;;
11039;SDS011;5573;49.592;8.662;2023-02-01T14:09:11;141.40;;;133.43;;
11039;SDS011;5573;49.592;8.662;2023-02-01T14:11:45;158.50;;;149.57;;
11039;SDS011;5573;49.592;8.662;2023-02-01T14:23:13;161.07;;;151.90;;
11039;SDS011;5573;49.592;8.662;2023-02-01T14:28:50;192.83;;;182.20;;
11039;SDS011;5573;49.592;8.662;2023-02-01T14:31:29;171.77;;;161.97;;
11039;SDS011;5573;49.592;8.662;2023-02-01T14:34:01;170.43;;;160.47;;
11039;SDS011;5573;49.592;8.662;2023-02-01T14:36:40;193.33;;;182.37;;
11039;SDS011;5573;49.592;8.662;2023-02-01T14:39:21;186.03;;;175.27;;
11039;SDS011;5573;49.592;8.662;2023-02-01T14:41:54;191.70;;;180.87;;
11039;SDS011;5573;49.592;8.662;2023-02-01T14:44:29;198.43;;;187.50;;
11039;SDS011;5573;49.592;8.662;2023-02-01T14:47:04;193.80;;;182.93;;
11039;SDS011;5573;49.592;8.662;2023-02-01T14:52:58;169.80;;;160.07;;
11039;SDS011;5573;49.592;8.662;2023-02-01T14:55:40;178.50;;;168.43;;
11039;SDS011;5573;49.592;8.662;2023-02-01T14:58:13;188.90;;;178.27;;
11039;SDS011;5573;49.592;8.662;2023-02-01T15:00:47;199.67;;;188.07;;
11039;SDS011;5573;49.592;8.662;2023-02-01T15:06:13;212.33;;;200.63;;
11039;SDS011;5573;49.592;8.662;2023-02-01T15:08:49;183.17;;;173.17;;
11039;SDS011;5573;49.592;8.662;2023-02-01T15:11:21;202.23;;;190.83;;
11039;SDS011;5573;49.592;8.662;2023-02-01T15:13:49;204.07;;;192.53;;
11039;SDS011;5573;49.592;8.662;2023-02-01T15:16:21;219.13;;;206.90;;
11039;SDS011;5573;49.592;8.662;2023-02-01T15:18:51;209.30;;;197.93;;
11039;SDS011;5573;49.592;8.662;2023-02-01T15:21:43;205.00;;;193.80;;
11039;SDS011;5573;49.592;8.662;2023-02-01T15:24:13;207.03;;;195.47;;
11039;SDS011;5573;49.592;8.662;2023-02-01T15:26:42;206.67;;;195.20;;
11039;SDS011;5573;49.592;8.662;2023-02-01T15:29:13;208.57;;;196.83;;